Time;durP1;ratioP1;P1;durP2;ratioP2;P2;SDS_P1;SDS_P2;PMS_P1;PMS_P2;Temp;Humidity;BMP_temperature;BMP_pressure;BME280_temperature;BME280_humidity;BME280_pressure;Samples;Min_cycle;Max_cycle;Signal;HPM_P1;HPM_P2
2022/06/27 00:01:51;;;;;;;13.55;6.78;;;15.30;99.90;;;;;;5091963;28;20028;-74
2022/06/27 00:04:17;;;;;;;11.02;5.80;;;15.30;99.90;;;;;;5092974;28;20368;-74
2022/06/27 00:06:43;;;;;;;7.28;5.78;;;15.30;99.90;;;;;;5095589;28;20199;-73
2022/06/27 00:09:09;;;;;;;13.80;6.38;;;15.30;99.90;;;;;;5084225;28;20021;-74
2022/06/27 00:11:35;;;;;;;10.77;5.78;;;15.30;99.90;;;;;;5089590;28;20110;-74
2022/06/27 00:14:01;;;;;;;8.10;6.32;;;15.30;99.90;;;;;;5089477;28;20023;-73
2022/06/27 00:16:27;;;;;;;17.65;6.75;;;15.40;99.90;;;;;;5092747;28;20031;-74
2022/06/27 00:18:52;;;;;;;10.23;5.65;;;15.40;99.90;;;;;;5090505;28;20009;-74
2022/06/27 00:21:18;;;;;;;11.82;6.57;;;15.40;99.90;;;;;;5095043;28;20472;-75
2022/06/27 00:23:44;;;;;;;8.75;5.35;;;15.30;99.90;;;;;;5094236;28;20028;-73
2022/06/27 00:26:10;;;;;;;10.82;5.55;;;15.40;99.90;;;;;;5095498;28;20028;-74
2022/06/27 00:28:36;;;;;;;10.85;5.95;;;15.40;99.90;;;;;;5087526;28;20476;-75
2022/06/27 00:31:02;;;;;;;9.63;5.32;;;15.40;99.90;;;;;;5087575;28;20024;-74
2022/06/27 00:33:28;;;;;;;11.43;5.30;;;15.40;99.90;;;;;;5089484;28;20082;-75
2022/06/27 00:35:54;;;;;;;8.40;5.10;;;15.40;99.90;;;;;;5087804;28;20016;-75
2022/06/27 00:38:20;;;;;;;10.02;5.35;;;15.40;99.90;;;;;;5084470;28;20116;-74
2022/06/27 00:40:46;;;;;;;10.15;4.60;;;15.40;99.90;;;;;;5091855;28;20048;-74
2022/06/27 00:43:12;;;;;;;8.18;4.38;;;15.40;99.90;;;;;;5087676;28;20016;-74
2022/06/27 00:45:38;;;;;;;7.68;5.13;;;15.40;99.90;;;;;;5093380;28;20086;-74
2022/06/27 00:48:05;;;;;;;7.25;5.18;;;15.40;99.90;;;;;;5088731;28;20024;-74
2022/06/27 00:50:31;;;;;;;7.15;5.18;;;15.40;99.90;;;;;;5095005;28;20044;-75
2022/06/27 00:52:57;;;;;;;6.63;4.80;;;15.40;99.90;;;;;;5094339;28;20051;-74
2022/06/27 00:55:24;;;;;;;10.82;4.85;;;15.40;99.90;;;;;;5096829;28;20429;-75
2022/06/27 00:57:50;;;;;;;11.43;4.60;;;15.40;99.90;;;;;;5098356;28;20434;-75
2022/06/27 01:00:17;;;;;;;14.13;4.65;;;15.40;99.90;;;;;;5092753;28;20012;-75
2022/06/27 01:02:43;;;;;;;8.90;4.90;;;15.40;99.90;;;;;;5080316;28;20230;-75
2022/06/27 01:05:12;;;;;;;8.70;4.72;;;15.40;99.90;;;;;;5086865;28;20102;-75
2022/06/27 01:07:39;;;;;;;7.00;4.63;;;15.40;99.90;;;;;;5088742;28;20054;-76
2022/06/27 01:10:06;;;;;;;7.70;5.32;;;15.50;99.90;;;;;;5087670;28;20024;-75
2022/06/27 01:12:32;;;;;;;10.32;4.20;;;15.50;99.90;;;;;;5086044;28;20032;-75
2022/06/27 01:14:59;;;;;;;7.25;4.30;;;15.40;99.90;;;;;;5090053;28;20024;-74
2022/06/27 01:17:26;;;;;;;7.90;5.00;;;15.50;99.90;;;;;;5087842;28;20508;-74
2022/06/27 01:19:52;;;;;;;10.50;5.20;;;15.40;99.90;;;;;;5095099;28;20024;-74
2022/06/27 01:22:19;;;;;;;10.45;4.93;;;15.50;99.90;;;;;;5090475;28;20031;-75
2022/06/27 01:24:45;;;;;;;7.68;5.43;;;15.40;99.90;;;;;;5096928;28;20400;-75
2022/06/27 01:27:11;;;;;;;9.13;4.53;;;15.40;99.90;;;;;;5094251;28;20029;-74
2022/06/27 01:29:37;;;;;;;8.30;4.32;;;15.40;99.90;;;;;;5098147;28;20021;-75
2022/06/27 01:32:04;;;;;;;11.25;5.47;;;15.40;99.90;;;;;;5096491;28;20035;-76
2022/06/27 01:34:30;;;;;;;9.02;4.95;;;15.30;99.90;;;;;;5080484;28;20025;-75
2022/06/27 01:36:56;;;;;;;9.13;4.88;;;15.30;99.90;;;;;;5083150;28;20435;-75
2022/06/27 01:39:24;;;;;;;11.68;5.40;;;15.30;99.90;;;;;;5082137;28;20033;-74
2022/06/27 01:41:55;;;;;;;7.63;4.50;;;15.30;99.90;;;;;;5084983;28;20070;-75
2022/06/27 01:44:23;;;;;;;9.55;4.25;;;15.30;99.90;;;;;;5082765;28;20028;-75
2022/06/27 01:47:00;;;;;;;7.30;4.47;;;15.20;99.90;;;;;;5087910;28;20024;-75
2022/06/27 01:49:27;;;;;;;10.57;4.50;;;15.20;99.90;;;;;;5086657;28;20040;-74
2022/06/27 01:51:54;;;;;;;8.60;4.68;;;15.10;99.90;;;;;;5090795;28;20024;-75
2022/06/27 01:54:21;;;;;;;5.50;4.38;;;15.10;99.90;;;;;;5088730;28;20032;-76
2022/06/27 01:56:49;;;;;;;6.10;4.07;;;15.10;99.90;;;;;;5091962;28;20016;-74
2022/06/27 01:59:17;;;;;;;8.10;4.60;;;15.10;99.90;;;;;;5097491;28;20027;-74
2022/06/27 02:01:44;;;;;;;7.82;4.20;;;15.10;99.90;;;;;;5094819;28;20448;-74
2022/06/27 02:04:12;;;;;;;9.52;3.97;;;15.00;99.90;;;;;;5093258;28;20052;-74
2022/06/27 02:06:40;;;;;;;4.60;4.05;;;15.00;99.90;;;;;;5097131;28;20039;-73
2022/06/27 02:09:08;;;;;;;5.63;4.22;;;15.00;99.90;;;;;;5084451;28;20028;-74
2022/06/27 02:11:34;;;;;;;6.25;4.75;;;15.00;99.90;;;;;;5085661;28;20020;-75
2022/06/27 02:14:00;;;;;;;5.30;4.72;;;15.00;99.90;;;;;;5091713;28;20031;-74
2022/06/27 02:16:26;;;;;;;8.18;5.35;;;15.00;99.90;;;;;;5093456;28;20024;-75
2022/06/27 02:18:52;;;;;;;8.45;4.80;;;15.00;99.90;;;;;;5089006;28;20063;-74
2022/06/27 02:21:20;;;;;;;7.68;5.30;;;15.00;99.90;;;;;;5085274;28;20044;-74
2022/06/27 02:23:47;;;;;;;7.05;4.80;;;15.00;99.90;;;;;;5094613;28;20137;-74
2022/06/27 02:26:14;;;;;;;10.95;5.80;;;15.00;99.90;;;;;;5097551;28;20128;-73
2022/06/27 02:28:42;;;;;;;7.80;4.90;;;15.00;99.90;;;;;;5096691;28;20047;-74
2022/06/27 02:31:09;;;;;;;9.45;5.22;;;15.00;99.90;;;;;;5085017;28;20024;-74
2022/06/27 02:33:40;;;;;;;8.73;5.60;;;15.00;99.90;;;;;;5086164;28;20024;-74
2022/06/27 02:36:08;;;;;;;9.27;5.07;;;15.00;99.90;;;;;;5081828;28;20020;-74
2022/06/27 02:38:35;;;;;;;10.50;5.72;;;15.00;99.90;;;;;;5083963;28;20117;-74
2022/06/27 02:41:04;;;;;;;9.00;5.50;;;15.00;99.90;;;;;;5085555;28;20027;-74
2022/06/27 02:43:33;;;;;;;8.48;5.75;;;15.00;99.90;;;;;;5086346;28;20136;-75
2022/06/27 02:46:00;;;;;;;8.90;6.00;;;15.00;99.90;;;;;;5087448;28;20089;-75
2022/06/27 02:48:27;;;;;;;10.27;5.68;;;15.00;99.90;;;;;;5089338;28;20031;-75
2022/06/27 02:50:56;;;;;;;12.80;6.30;;;15.00;99.90;;;;;;5090456;28;20051;-75
2022/06/27 02:53:35;;;;;;;10.35;6.03;;;15.00;99.90;;;;;;5090507;28;20024;-74
2022/06/27 02:56:10;;;;;;;8.38;5.85;;;15.00;99.90;;;;;;5093827;28;20021;-75
2022/06/27 02:59:01;;;;;;;12.38;5.80;;;15.10;99.90;;;;;;5084834;28;20045;-75
2022/06/27 03:01:30;;;;;;;9.25;5.50;;;15.10;99.90;;;;;;5091431;28;20059;-75
2022/06/27 03:04:00;;;;;;;9.48;5.93;;;15.10;99.90;;;;;;5078364;28;20025;-76
2022/06/27 03:06:26;;;;;;;;;;;15.10;99.90;;;;;;5091848;28;20036;-75
2022/06/27 03:08:52;;;;;;;7.05;5.30;;;15.10;99.90;;;;;;5080398;28;20432;-75
2022/06/27 03:11:21;;;;;;;10.55;5.25;;;15.10;99.90;;;;;;5087433;28;20488;-75
2022/06/27 03:13:48;;;;;;;5.25;4.53;;;15.10;99.90;;;;;;5083539;28;20521;-75
2022/06/27 03:16:15;;;;;;;6.03;4.95;;;15.10;99.90;;;;;;5093982;28;20024;-75
2022/06/27 03:18:42;;;;;;;7.40;4.40;;;15.10;99.90;;;;;;5093496;28;20546;-75
2022/06/27 03:21:08;;;;;;;10.15;4.45;;;15.10;99.90;;;;;;5093944;28;20020;-75
2022/06/27 03:23:34;;;;;;;5.80;4.28;;;15.10;99.90;;;;;;5095938;28;20024;-75
2022/06/27 03:26:00;;;;;;;4.93;4.03;;;15.10;99.90;;;;;;5090067;28;20028;-76
2022/06/27 03:28:26;;;;;;;8.68;4.53;;;15.10;99.90;;;;;;5084584;28;20033;-75
2022/06/27 03:30:52;;;;;;;11.43;4.60;;;15.10;99.90;;;;;;5091436;28;20035;-75
2022/06/27 03:33:18;;;;;;;4.68;4.25;;;15.10;99.90;;;;;;5093727;28;20111;-76
2022/06/27 03:35:44;;;;;;;5.35;3.65;;;15.20;99.90;;;;;;5109734;28;20077;-76
2022/06/27 03:38:12;;;;;;;7.50;3.88;;;15.20;99.90;;;;;;5088897;28;20028;-75
2022/06/27 03:40:38;;;;;;;7.45;3.78;;;15.20;99.90;;;;;;5095573;28;20480;-75
2022/06/27 03:43:03;;;;;;;5.70;4.10;;;15.20;99.90;;;;;;5096643;28;20177;-75
2022/06/27 03:45:29;;;;;;;8.80;4.03;;;15.20;99.90;;;;;;5078316;28;20020;-75
2022/06/27 03:47:58;;;;;;;5.25;3.67;;;15.20;99.90;;;;;;5078346;28;20033;-75
2022/06/27 03:50:25;;;;;;;4.57;3.60;;;15.20;99.90;;;;;;5093250;28;20043;-75
2022/06/27 03:52:52;;;;;;;4.10;3.05;;;15.20;99.90;;;;;;5083216;28;20122;-76
2022/06/27 03:55:19;;;;;;;5.35;3.05;;;15.20;99.90;;;;;;5095484;28;20016;-75
2022/06/27 03:57:50;;;;;;;3.30;3.00;;;15.20;99.90;;;;;;5093610;28;20361;-75
2022/06/27 04:00:19;;;;;;;3.95;2.85;;;15.20;99.90;;;;;;5085486;28;20031;-75
2022/06/27 04:02:45;;;;;;;4.20;2.45;;;15.20;99.90;;;;;;5095320;28;20045;-76
2022/06/27 04:05:11;;;;;;;6.97;3.10;;;15.20;99.90;;;;;;5093394;28;20099;-76
2022/06/27 04:07:38;;;;;;;4.60;3.25;;;15.20;99.90;;;;;;5083748;28;20115;-75
2022/06/27 04:10:06;;;;;;;5.28;2.60;;;15.10;99.90;;;;;;5089329;28;20149;-76
2022/06/27 04:12:33;;;;;;;3.25;2.95;;;15.10;99.90;;;;;;5090754;28;20392;-75
2022/06/27 04:14:59;;;;;;;4.45;2.60;;;15.10;99.90;;;;;;5088595;28;20545;-76
2022/06/27 04:17:24;;;;;;;4.05;2.78;;;15.10;99.90;;;;;;5092270;28;20444;-76
2022/06/27 04:19:50;;;;;;;4.43;2.67;;;15.10;99.90;;;;;;5090033;28;20021;-76
2022/06/27 04:22:16;;;;;;;7.70;3.20;;;15.10;99.90;;;;;;5090194;28;20091;-77
2022/06/27 04:24:42;;;;;;;5.30;2.83;;;15.10;99.90;;;;;;5095421;28;20055;-75
2022/06/27 04:27:08;;;;;;;3.70;2.83;;;15.10;99.90;;;;;;5095665;28;20020;-76
2022/06/27 04:29:34;;;;;;;4.45;3.05;;;15.10;99.90;;;;;;5098230;28;20028;-77
2022/06/27 04:32:00;;;;;;;3.45;3.05;;;15.10;99.90;;;;;;5096999;28;20415;-76
2022/06/27 04:34:27;;;;;;;3.78;3.03;;;15.10;99.90;;;;;;5099083;28;20017;-76
2022/06/27 04:36:53;;;;;;;3.15;2.85;;;15.10;99.90;;;;;;5099378;28;20028;-76
2022/06/27 04:39:19;;;;;;;4.10;3.15;;;15.10;99.90;;;;;;5100105;28;20016;-76
2022/06/27 04:41:50;;;;;;;5.88;3.25;;;15.10;99.90;;;;;;5089916;28;20070;-76
2022/06/27 04:44:18;;;;;;;;;;;15.10;99.90;;;;;;5093735;28;20031;-76
2022/06/27 04:46:47;;;;;;;3.58;2.88;;;15.10;99.90;;;;;;5096961;28;19912;-76
2022/06/27 04:49:14;;;;;;;6.13;3.80;;;15.10;99.90;;;;;;5099582;28;20040;-76
2022/06/27 04:51:41;;;;;;;8.13;3.90;;;15.10;99.90;;;;;;5099713;28;20557;-75
2022/06/27 04:54:08;;;;;;;6.70;3.17;;;15.20;99.90;;;;;;5091581;28;20027;-75
2022/06/27 04:56:37;;;;;;;7.35;3.65;;;15.10;99.90;;;;;;5083602;28;20107;-75
2022/06/27 04:59:03;;;;;;;3.47;3.15;;;15.10;99.90;;;;;;5082341;28;20071;-75
2022/06/27 05:01:29;;;;;;;4.78;2.95;;;15.10;99.90;;;;;;5086436;28;20028;-76
2022/06/27 05:03:55;;;;;;;5.80;3.30;;;15.10;99.90;;;;;;5085696;28;20016;-75
2022/06/27 05:06:20;;;;;;;8.15;3.47;;;15.10;99.90;;;;;;5089818;28;20038;-75
2022/06/27 05:08:46;;;;;;;4.78;3.60;;;15.00;99.90;;;;;;5091222;28;20024;-75
2022/06/27 05:11:12;;;;;;;6.55;3.30;;;15.00;99.90;;;;;;5093541;28;20507;-75
2022/06/27 05:13:38;;;;;;;5.90;4.00;;;15.00;99.90;;;;;;5093940;28;20024;-75
2022/06/27 05:16:04;;;;;;;4.63;3.60;;;15.00;99.90;;;;;;5093747;28;20024;-76
2022/06/27 05:18:31;;;;;;;7.40;3.75;;;15.00;99.90;;;;;;5097252;28;20024;-75
2022/06/27 05:20:57;;;;;;;7.80;3.67;;;15.10;99.90;;;;;;5095727;28;20023;-75
2022/06/27 05:23:23;;;;;;;6.95;4.30;;;15.00;99.90;;;;;;5099497;28;20095;-75
2022/06/27 05:25:49;;;;;;;9.65;4.20;;;15.10;99.90;;;;;;5083189;28;20024;-75
2022/06/27 05:28:15;;;;;;;5.80;4.35;;;15.00;99.90;;;;;;5081251;28;20389;-74
2022/06/27 05:30:40;;;;;;;5.25;3.80;;;15.00;99.90;;;;;;5090303;28;20400;-75
2022/06/27 05:33:06;;;;;;;4.95;3.63;;;15.00;99.90;;;;;;5099197;28;20082;-74
2022/06/27 05:35:33;;;;;;;7.85;3.88;;;15.00;99.90;;;;;;5094908;28;20077;-75
2022/06/27 05:37:59;;;;;;;8.27;4.60;;;15.00;99.90;;;;;;5099445;28;20016;-75
2022/06/27 05:40:25;;;;;;;6.43;3.72;;;15.00;99.90;;;;;;5095462;28;20032;-75
2022/06/27 05:42:53;;;;;;;5.70;4.32;;;15.00;99.90;;;;;;5094447;28;20099;-75
2022/06/27 05:45:20;;;;;;;5.65;3.80;;;15.00;99.90;;;;;;5095270;28;20036;-76
2022/06/27 05:47:46;;;;;;;10.23;4.22;;;15.00;99.90;;;;;;5082120;28;20016;-75
2022/06/27 05:50:13;;;;;;;5.10;3.30;;;15.00;99.90;;;;;;5088371;28;20125;-75
2022/06/27 05:52:40;;;;;;;6.75;3.92;;;15.00;99.90;;;;;;5091162;28;20024;-76
2022/06/27 05:55:08;;;;;;;5.18;3.90;;;15.10;99.90;;;;;;5092792;28;20081;-75
2022/06/27 05:57:34;;;;;;;6.05;4.55;;;15.10;99.90;;;;;;5090133;28;20016;-76
2022/06/27 06:00:00;;;;;;;7.60;3.90;;;15.10;99.90;;;;;;5092558;28;20050;-75
2022/06/27 06:02:26;;;;;;;4.90;3.75;;;15.20;99.90;;;;;;5094716;28;20476;-75
2022/06/27 06:04:56;;;;;;;7.57;3.95;;;15.20;99.90;;;;;;5094777;28;20024;-76
2022/06/27 06:07:25;;;;;;;6.38;4.00;;;15.30;99.90;;;;;;5096109;28;20030;-75
2022/06/27 06:09:52;;;;;;;6.13;3.72;;;15.30;99.90;;;;;;5097344;28;20020;-76
2022/06/27 06:12:18;;;;;;;5.70;3.63;;;15.40;99.90;;;;;;5086002;28;20021;-76
2022/06/27 06:14:46;;;;;;;6.90;3.63;;;15.40;99.90;;;;;;5081140;28;20451;-76
2022/06/27 06:17:12;;;;;;;7.03;3.88;;;15.60;99.90;;;;;;5081192;28;20017;-76
2022/06/27 06:19:38;;;;;;;8.13;4.18;;;15.60;99.90;;;;;;5086414;28;20050;-76
2022/06/27 06:22:05;;;;;;;5.78;3.60;;;15.70;99.90;;;;;;5082074;28;20013;-75
2022/06/27 06:24:31;;;;;;;8.13;3.45;;;15.70;99.90;;;;;;5089448;28;20035;-74
2022/06/27 06:27:00;;;;;;;8.95;4.05;;;15.70;99.90;;;;;;5085384;28;20020;-75
2022/06/27 06:29:26;;;;;;;6.07;4.32;;;15.70;99.90;;;;;;5092723;28;20031;-76
2022/06/27 06:31:52;;;;;;;6.13;4.30;;;15.60;99.90;;;;;;5087429;28;20024;-76
2022/06/27 06:34:17;;;;;;;4.57;3.47;;;15.70;99.90;;;;;;5094732;28;20103;-75
2022/06/27 06:36:45;;;;;;;6.22;3.83;;;15.60;99.90;;;;;;5092855;28;20461;-76
2022/06/27 06:39:12;;;;;;;8.93;3.78;;;15.60;99.90;;;;;;5098381;28;20020;-76
2022/06/27 06:41:39;;;;;;;8.15;3.78;;;15.50;99.90;;;;;;5094452;28;20017;-75
2022/06/27 06:44:06;;;;;;;6.00;4.35;;;15.50;99.90;;;;;;5085962;28;20550;-75
2022/06/27 06:46:34;;;;;;;8.10;3.88;;;15.60;99.90;;;;;;5092768;28;20021;-75
2022/06/27 06:49:06;;;;;;;8.77;3.47;;;15.60;99.90;;;;;;5089914;28;20504;-75
2022/06/27 06:51:36;;;;;;;10.60;4.30;;;15.60;99.90;;;;;;5079635;28;20036;-75
2022/06/27 06:54:07;;;;;;;7.10;3.58;;;15.60;99.90;;;;;;5085435;28;20028;-75
2022/06/27 06:56:34;;;;;;;6.05;3.67;;;15.60;99.90;;;;;;5086911;28;20073;-75
2022/06/27 06:59:01;;;;;;;8.52;4.20;;;15.70;99.90;;;;;;5080393;28;20115;-75
2022/06/27 07:01:28;;;;;;;7.75;3.60;;;15.60;99.90;;;;;;5085466;28;20012;-75
2022/06/27 07:03:55;;;;;;;9.07;4.22;;;15.60;99.90;;;;;;5084647;28;20025;-75
2022/06/27 07:06:24;;;;;;;9.65;4.50;;;15.60;99.90;;;;;;5087366;28;20028;-75
2022/06/27 07:08:55;;;;;;;11.13;4.15;;;15.60;99.90;;;;;;5087848;28;20346;-75
2022/06/27 07:11:22;;;;;;;8.27;3.97;;;15.60;99.90;;;;;;5094994;28;20020;-76
2022/06/27 07:13:51;;;;;;;11.95;3.90;;;15.50;99.90;;;;;;5091828;28;20024;-75
2022/06/27 07:16:18;;;;;;;11.18;4.45;;;15.50;99.90;;;;;;5092478;28;20492;-75
2022/06/27 07:18:47;;;;;;;6.93;3.83;;;15.50;99.90;;;;;;5094114;28;20020;-74
2022/06/27 07:21:26;;;;;;;8.60;4.03;;;15.50;99.90;;;;;;5095516;28;20460;-75
2022/06/27 07:23:53;;;;;;;7.50;4.38;;;15.50;99.90;;;;;;5097017;28;20031;-76
2022/06/27 07:26:20;;;;;;;12.55;4.50;;;15.40;99.90;;;;;;5076912;28;20036;-75
2022/06/27 07:28:46;;;;;;;6.55;3.95;;;15.40;99.90;;;;;;5079630;28;20086;-75
2022/06/27 07:31:13;;;;;;;15.38;4.68;;;15.40;99.90;;;;;;5080473;28;20016;-75
2022/06/27 07:33:43;;;;;;;9.18;4.40;;;15.40;99.90;;;;;;5081346;28;20654;-75
2022/06/27 07:36:15;;;;;;;13.75;4.82;;;15.30;99.90;;;;;;5084145;28;20488;-75
2022/06/27 07:38:46;;;;;;;10.65;4.65;;;15.20;99.90;;;;;;5085599;28;20012;-74
2022/06/27 07:41:13;;;;;;;14.15;4.93;;;15.10;99.90;;;;;;5087570;28;20039;-74
2022/06/27 07:43:40;;;;;;;15.93;5.57;;;15.00;99.90;;;;;;5089604;28;20077;-73
2022/06/27 07:46:06;;;;;;;12.95;4.78;;;15.00;99.90;;;;;;5094246;28;20020;-73
2022/06/27 07:48:34;;;;;;;7.60;4.32;;;14.80;99.90;;;;;;5092506;28;20020;-74
2022/06/27 07:51:00;;;;;;;10.05;4.45;;;14.80;99.90;;;;;;5087002;28;20060;-73
2022/06/27 07:53:26;;;;;;;10.77;4.55;;;14.80;99.90;;;;;;5085799;28;20052;-73
2022/06/27 07:55:55;;;;;;;16.60;4.78;;;14.70;99.90;;;;;;5092029;28;20028;-73
2022/06/27 07:58:30;;;;;;;11.43;4.50;;;14.70;99.90;;;;;;5092443;28;20015;-74
2022/06/27 08:01:00;;;;;;;12.10;4.63;;;14.70;99.90;;;;;;5094279;28;20020;-73
2022/06/27 08:03:42;;;;;;;6.65;3.90;;;14.70;99.90;;;;;;5096132;28;20103;-73
2022/06/27 08:06:15;;;;;;;17.55;4.82;;;14.60;99.90;;;;;;5080954;28;20473;-73
2022/06/27 08:08:43;;;;;;;14.57;5.72;;;14.60;99.90;;;;;;5078274;28;20489;-73
2022/06/27 08:11:15;;;;;;;10.70;5.15;;;14.70;99.90;;;;;;5081795;28;20024;-73
2022/06/27 08:13:43;;;;;;;11.45;4.93;;;14.60;99.90;;;;;;5080108;28;20104;-73
2022/06/27 08:16:12;;;;;;;20.08;5.80;;;14.70;99.90;;;;;;5091980;28;20088;-73
2022/06/27 08:18:39;;;;;;;11.50;5.28;;;14.60;99.90;;;;;;5087792;28;20052;-74
2022/06/27 08:21:08;;;;;;;15.18;5.15;;;14.70;99.90;;;;;;5088682;28;20107;-74
2022/06/27 08:23:34;;;;;;;6.22;4.30;;;14.70;99.90;;;;;;5085219;28;20031;-74
2022/06/27 08:26:00;;;;;;;10.60;4.80;;;14.70;99.90;;;;;;5090638;28;20035;-74
2022/06/27 08:28:28;;;;;;;11.68;5.35;;;14.70;99.90;;;;;;5089154;28;20020;-74
2022/06/27 08:30:54;;;;;;;12.07;5.70;;;14.60;99.90;;;;;;5093186;28;20024;-74
2022/06/27 08:33:21;;;;;;;10.38;6.53;;;14.60;99.90;;;;;;5094259;28;20098;-75
2022/06/27 08:35:49;;;;;;;16.05;6.63;;;14.70;99.90;;;;;;5093897;28;20028;-74
2022/06/27 08:38:17;;;;;;;11.23;6.22;;;14.70;99.90;;;;;;5093898;28;20467;-74
2022/06/27 08:40:43;;;;;;;21.10;6.18;;;14.80;99.90;;;;;;5096633;28;20111;-75
2022/06/27 08:43:11;;;;;;;13.52;5.85;;;14.90;99.90;;;;;;5091588;28;20030;-74
2022/06/27 08:45:38;;;;;;;17.83;5.32;;;14.90;99.90;;;;;;5095864;28;20908;-74
2022/06/27 08:48:07;;;;;;;13.50;5.90;;;15.00;99.90;;;;;;5090099;28;20025;-75
2022/06/27 08:50:36;;;;;;;11.20;6.55;;;15.00;99.90;;;;;;5094352;28;20101;-74
2022/06/27 08:53:04;;;;;;;9.10;5.70;;;15.10;99.90;;;;;;5090778;28;20051;-74
2022/06/27 08:55:34;;;;;;;22.98;7.95;;;15.10;99.90;;;;;;5099476;28;20024;-74
2022/06/27 08:58:07;;;;;;;17.90;7.50;;;15.10;99.90;;;;;;5094464;28;20021;-74
2022/06/27 09:00:41;;;;;;;14.82;5.45;;;15.20;99.90;;;;;;5098678;28;20471;-74
2022/06/27 09:03:10;;;;;;;11.80;6.03;;;15.20;99.90;;;;;;5093644;28;20048;-75
2022/06/27 09:05:36;;;;;;;9.77;5.60;;;15.10;99.90;;;;;;5080447;28;20040;-75
2022/06/27 09:08:07;;;;;;;11.50;6.03;;;15.10;99.90;;;;;;5082638;28;20024;-74
2022/06/27 09:10:42;;;;;;;11.07;5.88;;;15.10;99.90;;;;;;5084271;28;20028;-74
2022/06/27 09:13:11;;;;;;;13.02;5.60;;;15.00;99.90;;;;;;5099841;28;20483;-74
2022/06/27 09:15:52;;;;;;;10.57;6.20;;;15.00;99.90;;;;;;5096791;28;20024;-74
2022/06/27 09:18:24;;;;;;;12.73;7.78;;;15.00;99.90;;;;;;5081501;28;20020;-74
2022/06/27 09:21:01;;;;;;;14.30;6.10;;;15.10;99.90;;;;;;5092350;28;20404;-74
2022/06/27 09:23:37;;;;;;;13.60;5.88;;;15.10;99.90;;;;;;5096682;28;20016;-74
2022/06/27 09:26:10;;;;;;;10.05;5.75;;;15.10;99.90;;;;;;5096939;28;20055;-74
2022/06/27 09:28:41;;;;;;;9.70;5.85;;;15.10;99.90;;;;;;5097634;28;20024;-74
2022/06/27 09:31:35;;;;;;;16.98;6.32;;;15.10;99.90;;;;;;5078116;28;20385;-74
2022/06/27 09:34:18;;;;;;;17.33;6.25;;;15.10;99.90;;;;;;5071776;28;20065;-74
2022/06/27 09:36:55;;;;;;;9.95;5.32;;;15.10;99.90;;;;;;5081822;28;20023;-74
2022/06/27 09:39:36;;;;;;;10.18;7.00;;;15.10;99.90;;;;;;5084554;28;20031;-74
2022/06/27 09:42:07;;;;;;;14.07;5.68;;;15.10;99.90;;;;;;5087995;28;20048;-74
2022/06/27 09:44:39;;;;;;;13.30;6.82;;;15.10;99.90;;;;;;5090050;28;20480;-73
2022/06/27 09:47:16;;;;;;;14.10;6.07;;;15.10;99.90;;;;;;5090855;28;20455;-73
2022/06/27 09:49:44;;;;;;;16.40;6.95;;;15.10;99.90;;;;;;5087544;28;20055;-73
2022/06/27 09:52:19;;;;;;;14.48;6.05;;;15.10;99.90;;;;;;5093336;28;20028;-73
2022/06/27 09:54:47;;;;;;;13.18;6.95;;;15.00;99.90;;;;;;5092114;28;20056;-73
2022/06/27 09:57:15;;;;;;;13.85;5.78;;;15.10;99.90;;;;;;5096537;28;20107;-73
2022/06/27 09:59:42;;;;;;;13.45;6.07;;;15.10;99.90;;;;;;5095649;28;20095;-74
2022/06/27 10:02:08;;;;;;;14.13;6.10;;;15.10;99.90;;;;;;5096616;28;20016;-74
2022/06/27 10:04:37;;;;;;;10.98;5.82;;;15.10;99.90;;;;;;5098700;28;20494;-73
2022/06/27 10:07:06;;;;;;;9.30;6.55;;;15.10;99.90;;;;;;5095179;28;20103;-74
2022/06/27 10:09:32;;;;;;;14.80;5.95;;;15.10;99.90;;;;;;5095244;28;20460;-73
2022/06/27 10:12:23;;;;;;;12.60;6.55;;;15.20;99.90;;;;;;5092643;28;20384;-73
2022/06/27 10:15:10;;;;;;;10.60;5.82;;;15.20;99.90;;;;;;5085153;28;20058;-73
2022/06/27 10:17:38;;;;;;;12.10;5.90;;;15.30;99.90;;;;;;5090368;28;20028;-74
2022/06/27 10:20:27;;;;;;;13.63;5.60;;;15.40;99.90;;;;;;5096876;28;20051;-74
2022/06/27 10:23:11;;;;;;;9.93;5.90;;;15.40;99.90;;;;;;5085248;28;20480;-73
2022/06/27 10:25:41;;;;;;;16.98;6.78;;;15.40;99.90;;;;;;5095740;28;20093;-73
2022/06/27 10:28:13;;;;;;;16.70;5.60;;;15.50;99.90;;;;;;5077632;28;20103;-73
2022/06/27 10:30:46;;;;;;;14.40;5.20;;;15.60;99.90;;;;;;5081040;28;20439;-73
2022/06/27 10:33:21;;;;;;;9.13;4.75;;;15.60;99.90;;;;;;5080320;28;20021;-74
2022/06/27 10:35:59;;;;;;;13.60;6.18;;;15.70;99.90;;;;;;5084614;28;20039;-74
2022/06/27 10:38:33;;;;;;;10.30;5.35;;;15.70;99.90;;;;;;5090071;28;20075;-74
2022/06/27 10:41:01;;;;;;;14.10;5.22;;;15.70;99.90;;;;;;5087773;28;20112;-74
2022/06/27 10:43:36;;;;;;;13.02;6.30;;;15.80;99.90;;;;;;5088293;28;20090;-75
2022/06/27 10:46:11;;;;;;;8.35;4.47;;;15.80;99.90;;;;;;5090948;28;20028;-74
2022/06/27 10:48:39;;;;;;;12.68;5.95;;;15.80;99.90;;;;;;5091773;28;20396;-74
2022/06/27 10:51:33;;;;;;;16.13;5.75;;;15.90;99.90;;;;;;5093929;28;20412;-74
2022/06/27 10:54:05;;;;;;;11.85;4.82;;;16.10;99.90;;;;;;5085992;28;20024;-74
2022/06/27 10:56:51;;;;;;;9.23;5.10;;;16.10;99.90;;;;;;5096483;28;20095;-73
2022/06/27 10:59:18;;;;;;;12.05;4.93;;;16.30;99.90;;;;;;5083591;28;20044;-74
2022/06/27 11:02:00;;;;;;;6.70;3.60;;;16.30;99.90;;;;;;5083885;28;20073;-74
2022/06/27 11:04:30;;;;;;;8.38;4.38;;;16.20;99.90;;;;;;5097755;28;20020;-74
2022/06/27 11:07:03;;;;;;;6.97;4.05;;;16.30;99.90;;;;;;5092713;28;20025;-75
2022/06/27 11:09:42;;;;;;;7.07;3.85;;;16.40;99.90;;;;;;5088611;28;20032;-75
2022/06/27 11:12:14;;;;;;;6.68;3.22;;;16.40;99.90;;;;;;5086931;28;20097;-75
2022/06/27 11:14:59;;;;;;;8.63;3.88;;;16.50;99.90;;;;;;5084090;28;20032;-74
2022/06/27 11:17:43;;;;;;;7.50;3.80;;;16.50;99.90;;;;;;5083382;28;20066;-75
2022/06/27 11:20:20;;;;;;;9.68;3.42;;;16.50;99.90;;;;;;5092343;28;20020;-75
2022/06/27 11:22:54;;;;;;;8.90;3.13;;;16.50;99.90;;;;;;5089440;28;20042;-75
2022/06/27 11:25:21;;;;;;;11.20;3.63;;;16.40;99.90;;;;;;5085710;28;20035;-75
2022/06/27 11:27:50;;;;;;;12.40;4.10;;;16.30;99.90;;;;;;5096046;28;20073;-75
2022/06/27 11:33:18;;;;;;;9.95;3.28;;;16.30;99.90;;;;;;5093384;28;20085;-75
2022/06/27 11:35:46;;;;;;;8.50;4.10;;;16.20;99.90;;;;;;5095279;28;20035;-74
2022/06/27 11:38:12;;;;;;;8.88;3.75;;;16.20;99.90;;;;;;5096512;28;20149;-75
2022/06/27 11:40:39;;;;;;;11.95;4.47;;;16.10;99.90;;;;;;5077489;28;20016;-75
2022/06/27 11:43:05;;;;;;;12.85;4.07;;;16.20;99.90;;;;;;5078857;28;20017;-75
2022/06/27 11:45:40;;;;;;;10.27;5.13;;;16.10;99.90;;;;;;5081873;28;20202;-75
2022/06/27 11:48:16;;;;;;;9.88;4.32;;;16.10;99.90;;;;;;5080953;28;20463;-75
2022/06/27 11:50:42;;;;;;;15.82;4.00;;;16.10;99.90;;;;;;5083615;28;20048;-75
2022/06/27 11:53:08;;;;;;;7.90;3.55;;;16.10;99.90;;;;;;5084050;28;20029;-75
2022/06/27 11:55:34;;;;;;;7.82;3.95;;;16.00;99.90;;;;;;5086182;28;20028;-75
2022/06/27 11:58:00;;;;;;;11.27;4.65;;;15.90;99.90;;;;;;5086458;28;20023;-75
2022/06/27 12:00:33;;;;;;;8.25;4.20;;;15.90;99.90;;;;;;5090748;28;20058;-75
2022/06/27 12:02:58;;;;;;;8.48;4.05;;;15.90;99.90;;;;;;5088738;28;20548;-75
2022/06/27 12:05:25;;;;;;;9.50;4.75;;;15.90;99.90;;;;;;5092560;28;20063;-75
2022/06/27 12:07:54;;;;;;;7.15;4.20;;;16.00;99.90;;;;;;5092476;28;20017;-75
2022/06/27 12:10:36;;;;;;;14.63;4.22;;;16.00;99.90;;;;;;5094505;28;20035;-75
2022/06/27 12:13:04;;;;;;;11.65;4.13;;;16.00;99.90;;;;;;5077886;28;20019;-75
2022/06/27 12:15:30;;;;;;;11.15;4.40;;;16.00;99.90;;;;;;5084487;28;20403;-75
2022/06/27 12:17:57;;;;;;;10.95;4.43;;;16.00;99.90;;;;;;5082211;28;20020;-75
2022/06/27 12:20:25;;;;;;;11.30;4.05;;;16.10;99.90;;;;;;5078907;28;20115;-75
2022/06/27 12:22:51;;;;;;;11.75;4.47;;;16.20;99.90;;;;;;5085387;28;20016;-74
2022/06/27 12:25:18;;;;;;;10.18;3.83;;;16.20;99.90;;;;;;5086279;28;20028;-75
2022/06/27 12:27:44;;;;;;;8.60;3.45;;;16.20;99.90;;;;;;5092551;28;20028;-75
2022/06/27 12:30:12;;;;;;;9.60;3.90;;;16.20;99.90;;;;;;5087516;28;20025;-76
2022/06/27 12:32:38;;;;;;;13.05;4.53;;;16.20;99.90;;;;;;5097792;28;20020;-75
2022/06/27 12:35:04;;;;;;;15.85;5.05;;;16.20;99.90;;;;;;5096758;28;20028;-75
2022/06/27 12:37:30;;;;;;;15.00;4.60;;;16.20;99.90;;;;;;5087005;28;20031;-75
2022/06/27 12:39:56;;;;;;;10.15;4.53;;;16.30;99.90;;;;;;5093258;28;20024;-75
2022/06/27 12:42:22;;;;;;;11.98;4.38;;;16.30;99.90;;;;;;5095383;28;20142;-76
2022/06/27 12:44:49;;;;;;;10.50;4.22;;;16.30;99.90;;;;;;5090338;28;20396;-76
2022/06/27 12:47:14;;;;;;;12.70;5.18;;;16.20;99.90;;;;;;5097079;28;20020;-75
2022/06/27 12:49:40;;;;;;;12.57;4.22;;;16.20;99.90;;;;;;5098158;28;20044;-75
2022/06/27 12:52:06;;;;;;;8.73;3.95;;;16.20;99.90;;;;;;5099580;28;20488;-75
2022/06/27 12:54:32;;;;;;;15.88;4.43;;;16.20;99.90;;;;;;5099796;28;20024;-75